TimeCST,TemperatureF,Dew PointF,Humidity,Sea Level PressureIn,VisibilityMPH,Wind Direction,Wind SpeedMPH,Gust SpeedMPH,PrecipitationIn,Events,Conditions,WindDirDegrees,DateUTC
12:52 AM,14.0,10.0,84,30.07,10.0,Calm,Calm,-,N/A,,Overcast,0,2013-02-22 06:52:00
1:42 AM,14.0,10.4,86,29.93,2.0,Calm,Calm,-,0.00,Snow,Light Snow,0,2013-02-22 07:42:00
1:50 AM,14.0,10.4,86,29.93,1.8,Calm,Calm,-,0.00,Snow,Light Snow,0,2013-02-22 07:50:00
1:52 AM,14.0,10.4,86,29.93,1.8,Calm,Calm,-,N/A,Snow,Light Snow,0,2013-02-22 07:52:00
1:59 AM,14.0,10.4,86,29.93,2.0,NW,3.5,-,0.00,Snow,Light Snow,310,2013-02-22 07:59:00
2:20 AM,14.0,10.4,86,29.94,1.8,WNW,3.5,-,0.00,Snow,Light Snow,300,2013-02-22 08:20:00
2:37 AM,14.0,10.4,86,29.94,1.0,NW,3.5,-,0.01,Snow,Light Snow,320,2013-02-22 08:37:00
2:47 AM,14.0,10.4,86,29.94,1.0,NNW,3.5,-,0.01,Snow,Light Snow,330,2013-02-22 08:47:00
2:52 AM,14.0,10.9,88,30.06,1.0,NNW,3.5,-,0.01,Snow,Light Snow,330,2013-02-22 08:52:00
3:12 AM,14.0,10.4,86,29.93,1.2,NNW,3.5,-,0.00,Snow,Light Snow,330,2013-02-22 09:12:00
3:37 AM,14.0,10.4,86,29.93,2.0,Calm,Calm,-,0.01,Snow,Light Snow,0,2013-02-22 09:37:00
3:52 AM,14.0,10.0,84,30.06,2.0,North,3.5,-,0.01,Snow,Light Snow,10,2013-02-22 09:52:00
4:04 AM,14.0,10.4,86,29.93,1.8,Calm,Calm,-,0.00,Snow,Light Snow,0,2013-02-22 10:04:00
4:26 AM,12.2,10.4,92,29.93,2.5,NNW,4.6,-,0.00,Snow,Light Snow,340,2013-02-22 10:26:00
4:37 AM,12.2,8.6,85,29.93,3.0,NNW,4.6,-,0.00,Snow,Light Snow,340,2013-02-22 10:37:00
4:52 AM,12.9,9.0,84,30.06,4.0,North,3.5,-,0.00,Snow,Light Snow,350,2013-02-22 10:52:00
5:52 AM,12.2,8.6,85,29.93,4.0,NW,3.5,-,N/A,,Overcast,310,2013-02-22 11:52:00
6:52 AM,10.9,7.0,84,30.07,8.0,NW,6.9,-,N/A,,Overcast,320,2013-02-22 12:52:00
7:52 AM,9.0,6.1,88,30.08,8.0,WNW,8.1,-,N/A,,Overcast,300,2013-02-22 13:52:00
8:52 AM,6.1,3.0,87,30.11,7.0,WNW,3.5,-,N/A,,Overcast,300,2013-02-22 14:52:00
9:52 AM,14.0,8.1,77,30.10,9.0,NW,4.6,-,N/A,,Overcast,320,2013-02-22 15:52:00
10:52 AM,17.1,10.0,74,30.10,10.0,NW,8.1,-,0.01,,Scattered Clouds,320,2013-02-22 16:52:00
11:52 AM,18.0,10.9,74,30.10,10.0,WNW,8.1,-,N/A,,Clear,300,2013-02-22 17:52:00
12:52 PM,19.9,12.0,71,30.08,10.0,WNW,9.2,-,N/A,,Clear,290,2013-02-22 18:52:00
1:52 PM,21.9,14.0,72,30.06,10.0,West,6.9,-,N/A,,Clear,270,2013-02-22 19:52:00
2:52 PM,24.1,15.1,69,30.04,10.0,West,6.9,-,N/A,,Clear,270,2013-02-22 20:52:00
3:52 PM,24.1,15.1,69,30.04,10.0,West,9.2,-,N/A,,Clear,270,2013-02-22 21:52:00
4:52 PM,21.0,14.0,74,30.03,10.0,WSW,4.6,-,N/A,,Clear,250,2013-02-22 22:52:00
5:52 PM,21.9,15.1,75,30.02,10.0,Calm,Calm,-,N/A,,Clear,0,2013-02-22 23:52:00
6:52 PM,10.9,8.1,88,30.04,10.0,SSW,9.2,-,N/A,,Clear,200,2013-02-23 00:52:00
7:52 PM,10.9,7.0,84,30.03,10.0,SW,3.5,-,N/A,,Clear,230,2013-02-23 01:52:00
8:52 PM,10.0,7.0,87,30.03,10.0,SSW,4.6,-,N/A,,Clear,210,2013-02-23 02:52:00
9:52 PM,8.1,5.0,87,30.02,10.0,WSW,4.6,-,N/A,,Partly Cloudy,250,2013-02-23 03:52:00
10:52 PM,8.1,5.0,87,30.00,10.0,SW,5.8,-,N/A,,Clear,230,2013-02-23 04:52:00
11:52 PM,7.0,3.9,87,29.98,10.0,WSW,8.1,-,N/A,,Clear,240,2013-02-23 05:52:00